Time;durP1;ratioP1;P1;durP2;ratioP2;P2;SDS_P1;SDS_P2;PMS_P1;PMS_P2;Temp;Humidity;BMP_temperature;BMP_pressure;BME280_temperature;BME280_humidity;BME280_pressure;Samples;Min_cycle;Max_cycle;Signal;HPM_P1;HPM_P2
2023/05/22 00:00:51;;;;;;;6.23;5.63;;;;;;;;;;5107151;28;20758;-81
2023/05/22 00:03:23;;;;;;;7.60;5.37;;;;;;;;;;5107250;28;20536;-80
2023/05/22 00:05:52;;;;;;;6.20;5.60;;;;;;;;;;5109493;28;20507;-81
2023/05/22 00:08:21;;;;;;;8.20;6.37;;;;;;;;;;5105657;28;20986;-82
2023/05/22 00:10:50;;;;;;;6.30;5.70;;;;;;;;;;5111045;28;20436;-79
2023/05/22 00:13:27;;;;;;;7.10;5.60;;;;;;;;;;5112081;28;20448;-81
2023/05/22 00:15:55;;;;;;;5.47;4.90;;;;;;;;;;5106369;28;20911;-81
2023/05/22 00:18:24;;;;;;;6.90;6.10;;;;;;;;;;5108607;28;20516;-82
2023/05/22 00:23:29;;;;;;;7.50;6.53;;;;;;;;;;3413427;26;20459;-71
2023/05/22 00:25:56;;;;;;;7.83;6.00;;;;;;;;;;5099079;28;20459;-71
2023/05/22 00:28:25;;;;;;;9.70;6.43;;;;;;;;;;5099365;28;20568;-70
2023/05/22 00:30:53;;;;;;;10.00;5.87;;;;;;;;;;5102556;28;20507;-70
2023/05/22 00:33:20;;;;;;;7.83;6.00;;;;;;;;;;5103165;28;20459;-70
2023/05/22 00:35:48;;;;;;;7.00;6.10;;;;;;;;;;5103758;28;20695;-70
2023/05/22 00:38:31;;;;;;;6.47;5.60;;;;;;;;;;5100861;28;20543;-71
2023/05/22 00:40:59;;;;;;;7.53;5.30;;;;;;;;;;5100382;28;20920;-71
2023/05/22 00:43:26;;;;;;;12.40;5.30;;;;;;;;;;5101664;28;20562;-70
2023/05/22 00:45:54;;;;;;;6.23;4.70;;;;;;;;;;5101891;28;20466;-71
2023/05/22 00:48:21;;;;;;;7.93;5.27;;;;;;;;;;5101323;28;20516;-70
2023/05/22 00:50:49;;;;;;;6.30;5.40;;;;;;;;;;5101054;28;20535;-70
2023/05/22 00:53:17;;;;;;;6.97;5.40;;;;;;;;;;5101486;28;20455;-69
2023/05/22 00:55:46;;;;;;;7.83;6.13;;;;;;;;;;5101960;28;20466;-71
2023/05/22 00:58:17;;;;;;;8.23;5.40;;;;;;;;;;5102746;28;20811;-70
2023/05/22 01:00:45;;;;;;;6.43;5.40;;;;;;;;;;5103147;28;20456;-70
2023/05/22 01:03:12;;;;;;;8.30;6.23;;;;;;;;;;5100961;28;20863;-71
2023/05/22 01:05:41;;;;;;;6.53;5.50;;;;;;;;;;5102121;28;20468;-70
2023/05/22 01:08:08;;;;;;;6.60;5.50;;;;;;;;;;5101149;28;20463;-71
2023/05/22 01:10:37;;;;;;;7.70;5.97;;;;;;;;;;5101857;28;20518;-69
2023/05/22 01:13:10;;;;;;;6.57;5.20;;;;;;;;;;5101363;28;20917;-70
2023/05/22 01:15:44;;;;;;;7.90;5.27;;;;;;;;;;5101996;28;20563;-70
2023/05/22 01:18:18;;;;;;;8.13;5.77;;;;;;;;;;5101388;28;20769;-69
2023/05/22 01:20:51;;;;;;;6.80;5.70;;;;;;;;;;5100892;28;20448;-69
2023/05/22 01:23:32;;;;;;;9.73;6.07;;;;;;;;;;5101066;28;20562;-70
2023/05/22 01:26:14;;;;;;;7.10;6.30;;;;;;;;;;5100042;28;20463;-70
2023/05/22 01:28:52;;;;;;;5.80;4.80;;;;;;;;;;5119097;28;20482;-68
2023/05/22 01:31:24;;;;;;;6.83;5.60;;;;;;;;;;5121907;28;20466;-70
2023/05/22 01:33:52;;;;;;;6.80;4.83;;;;;;;;;;5119883;28;20554;-71
2023/05/22 01:36:21;;;;;;;7.40;5.50;;;;;;;;;;5121147;28;20455;-71
2023/05/22 01:38:50;;;;;;;10.00;6.50;;;;;;;;;;5122637;28;20523;-70
2023/05/22 01:41:17;;;;;;;7.50;5.50;;;;;;;;;;5122209;28;20512;-69
2023/05/22 01:43:46;;;;;;;6.40;5.50;;;;;;;;;;5122176;28;20454;-70
2023/05/22 01:46:13;;;;;;;6.43;5.60;;;;;;;;;;5121498;28;20459;-69
2023/05/22 01:48:42;;;;;;;6.10;5.03;;;;;;;;;;5122142;28;20463;-70
2023/05/22 01:51:19;;;;;;;8.20;5.27;;;;;;;;;;5123173;28;20553;-69
2023/05/22 01:53:50;;;;;;;6.70;5.63;;;;;;;;;;5123098;28;20467;-71
2023/05/22 01:56:20;;;;;;;9.90;6.40;;;;;;;;;;5123550;28;20734;-69
2023/05/22 01:58:51;;;;;;;10.83;5.33;;;;;;;;;;5122026;28;20530;-70
2023/05/22 02:01:20;;;;;;;7.00;5.13;;;;;;;;;;5123385;28;20455;-70
2023/05/22 02:03:55;;;;;;;6.40;5.57;;;;;;;;;;5121867;28;20545;-70
2023/05/22 02:06:23;;;;;;;6.40;5.00;;;;;;;;;;5121009;28;20500;-71
2023/05/22 02:08:51;;;;;;;7.83;5.17;;;;;;;;;;5122254;28;20920;-70
2023/05/22 02:11:18;;;;;;;7.93;5.90;;;;;;;;;;5122592;28;20783;-70
2023/05/22 02:13:46;;;;;;;6.83;5.70;;;;;;;;;;5125023;28;20454;-69
2023/05/22 02:16:16;;;;;;;7.87;4.93;;;;;;;;;;5122711;28;20454;-70
2023/05/22 02:18:45;;;;;;;8.73;4.50;;;;;;;;;;5122784;28;20466;-69
2023/05/22 02:21:24;;;;;;;8.30;5.27;;;;;;;;;;5122423;28;20463;-70
2023/05/22 02:23:57;;;;;;;5.40;4.77;;;;;;;;;;5124557;28;20491;-70
2023/05/22 02:26:24;;;;;;;7.33;4.50;;;;;;;;;;5121591;28;20447;-69
2023/05/22 02:28:52;;;;;;;7.20;5.57;;;;;;;;;;5121609;28;20531;-71
2023/05/22 02:31:19;;;;;;;5.70;5.00;;;;;;;;;;5122876;28;20454;-71
2023/05/22 02:33:47;;;;;;;7.73;5.40;;;;;;;;;;5120774;28;20523;-70
2023/05/22 02:36:14;;;;;;;5.80;4.33;;;;;;;;;;5121574;28;20528;-71
2023/05/22 02:38:43;;;;;;;9.03;5.33;;;;;;;;;;5120073;28;20451;-70
2023/05/22 02:41:10;;;;;;;5.33;4.40;;;;;;;;;;5120322;28;20447;-71
2023/05/22 02:43:37;;;;;;;6.13;5.17;;;;;;;;;;5121702;28;20550;-70
2023/05/22 02:46:05;;;;;;;7.40;4.40;;;;;;;;;;5119869;28;20524;-69
2023/05/22 02:48:32;;;;;;;5.13;4.60;;;;;;;;;;5120321;28;21116;-70
2023/05/22 02:50:59;;;;;;;7.83;4.80;;;;;;;;;;5111118;28;20484;-69
2023/05/22 02:53:28;;;;;;;6.57;4.70;;;;;;;;;;5098322;28;20874;-69
2023/05/22 02:55:58;;;;;;;4.90;3.73;;;;;;;;;;5098967;28;20448;-69
2023/05/22 02:58:25;;;;;;;5.47;4.80;;;;;;;;;;5100041;28;20539;-69
2023/05/22 03:00:53;;;;;;;5.47;4.73;;;;;;;;;;5099844;28;20505;-69
2023/05/22 03:03:23;;;;;;;7.90;5.67;;;;;;;;;;5098794;28;20802;-70
2023/05/22 03:05:52;;;;;;;12.40;6.40;;;;;;;;;;5097960;28;20781;-69
2023/05/22 03:08:19;;;;;;;7.67;6.20;;;;;;;;;;5099196;28;20460;-69
2023/05/22 03:10:47;;;;;;;10.63;6.33;;;;;;;;;;5098595;28;20977;-71
2023/05/22 03:13:16;;;;;;;6.10;5.50;;;;;;;;;;5099124;28;20505;-71
2023/05/22 03:15:43;;;;;;;7.27;5.50;;;;;;;;;;5098423;28;20568;-69
2023/05/22 03:18:11;;;;;;;7.27;6.17;;;;;;;;;;5097607;28;20899;-70
2023/05/22 03:20:39;;;;;;;7.63;6.80;;;;;;;;;;5099103;28;20466;-70
2023/05/22 03:23:06;;;;;;;8.67;6.20;;;;;;;;;;5099141;28;20558;-70
2023/05/22 03:25:33;;;;;;;8.43;6.80;;;;;;;;;;5099211;28;20528;-70
2023/05/22 03:28:01;;;;;;;7.70;6.80;;;;;;;;;;5099165;28;20468;-70
2023/05/22 03:30:29;;;;;;;8.40;7.03;;;;;;;;;;5098617;28;20468;-70
2023/05/22 03:32:57;;;;;;;8.10;6.63;;;;;;;;;;5098021;28;20448;-70
2023/05/22 03:35:25;;;;;;;6.00;5.40;;;;;;;;;;5099380;28;20451;-71
2023/05/22 03:37:52;;;;;;;9.93;6.43;;;;;;;;;;5097540;28;20467;-69
2023/05/22 03:40:23;;;;;;;7.07;6.37;;;;;;;;;;5098747;28;20478;-68
2023/05/22 03:42:57;;;;;;;6.63;5.67;;;;;;;;;;5098978;28;20455;-71
2023/05/22 03:45:24;;;;;;;6.80;6.00;;;;;;;;;;5096247;28;20479;-70
2023/05/22 03:47:53;;;;;;;8.83;7.20;;;;;;;;;;5097494;28;20956;-71
2023/05/22 03:50:20;;;;;;;8.80;7.00;;;;;;;;;;5095962;28;20578;-69
2023/05/22 03:52:47;;;;;;;8.27;6.37;;;;;;;;;;5094969;28;20474;-70
2023/05/22 03:55:15;;;;;;;6.27;5.60;;;;;;;;;;5094747;28;20455;-69
2023/05/22 03:57:45;;;;;;;8.70;6.07;;;;;;;;;;5096039;28;20519;-70
2023/05/22 04:00:15;;;;;;;7.77;6.33;;;;;;;;;;5095192;28;20912;-70
2023/05/22 04:02:45;;;;;;;8.53;6.40;;;;;;;;;;5094471;28;20796;-70
2023/05/22 04:05:30;;;;;;;7.10;6.40;;;;;;;;;;5104937;28;20519;-70
2023/05/22 04:08:00;;;;;;;9.37;6.77;;;;;;;;;;5117282;28;20467;-70
2023/05/22 04:10:37;;;;;;;7.23;6.37;;;;;;;;;;5118098;28;20513;-71
2023/05/22 04:13:22;;;;;;;8.60;6.60;;;;;;;;;;5117805;28;20466;-70
2023/05/22 04:15:51;;;;;;;8.47;6.23;;;;;;;;;;5116007;28;20455;-69
2023/05/22 04:18:19;;;;;;;6.73;5.73;;;;;;;;;;5116555;28;20482;-70
2023/05/22 04:20:52;;;;;;;8.33;5.97;;;;;;;;;;5117511;28;20478;-68
2023/05/22 04:23:24;;;;;;;8.70;6.37;;;;;;;;;;5114510;28;20450;-70
2023/05/22 04:26:01;;;;;;;9.27;6.73;;;;;;;;;;5111584;28;20494;-70
2023/05/22 04:28:29;;;;;;;7.87;6.00;;;;;;;;;;5114655;28;20451;-71
2023/05/22 04:30:57;;;;;;;11.37;6.60;;;;;;;;;;5114611;28;21162;-70
2023/05/22 04:33:24;;;;;;;10.33;6.83;;;;;;;;;;5113649;28;20555;-69
2023/05/22 04:35:53;;;;;;;9.50;6.17;;;;;;;;;;5117236;28;20447;-70
2023/05/22 04:38:20;;;;;;;8.83;6.20;;;;;;;;;;5113962;28;20542;-69
2023/05/22 04:40:51;;;;;;;8.83;5.63;;;;;;;;;;5116813;28;20451;-71
2023/05/22 04:43:26;;;;;;;7.70;6.20;;;;;;;;;;5115146;28;20520;-69
2023/05/22 04:45:55;;;;;;;7.17;5.90;;;;;;;;;;5109531;28;20744;-71
2023/05/22 04:48:25;;;;;;;7.23;6.20;;;;;;;;;;5115399;28;20455;-70
2023/05/22 04:50:58;;;;;;;8.50;5.83;;;;;;;;;;5120261;28;20475;-71
2023/05/22 04:53:29;;;;;;;7.10;6.40;;;;;;;;;;5119688;28;20504;-70
2023/05/22 04:56:00;;;;;;;8.30;6.73;;;;;;;;;;5119781;28;20459;-71
2023/05/22 04:58:30;;;;;;;10.73;5.43;;;;;;;;;;5118464;28;20561;-71
2023/05/22 05:01:02;;;;;;;9.03;6.20;;;;;;;;;;5121111;28;20451;-70
2023/05/22 05:03:32;;;;;;;7.83;5.40;;;;;;;;;;5118367;28;20479;-70
2023/05/22 05:06:22;;;;;;;7.47;5.10;;;;;;;;;;5114833;28;20473;-70
2023/05/22 05:08:58;;;;;;;5.97;4.63;;;;;;;;;;5115367;28;20478;-70
2023/05/22 05:11:30;;;;;;;9.20;5.30;;;;;;;;;;5116102;28;20487;-69
2023/05/22 05:14:01;;;;;;;6.60;4.50;;;;;;;;;;5113227;28;20466;-69
2023/05/22 05:16:28;;;;;;;8.13;4.57;;;;;;;;;;5114468;28;20496;-70
2023/05/22 05:18:56;;;;;;;9.60;4.00;;;;;;;;;;5113843;28;20482;-69
2023/05/22 05:21:27;;;;;;;6.90;4.13;;;;;;;;;;5115889;28;20444;-69
2023/05/22 05:23:56;;;;;;;9.03;4.40;;;;;;;;;;5113898;28;20471;-70
2023/05/22 05:26:25;;;;;;;5.50;3.43;;;;;;;;;;5112662;28;20459;-70
2023/05/22 05:28:57;;;;;;;6.77;4.33;;;;;;;;;;5113814;28;20439;-70
2023/05/22 05:31:29;;;;;;;6.27;4.57;;;;;;;;;;5113736;28;20578;-69
2023/05/22 05:34:02;;;;;;;6.47;4.33;;;;;;;;;;5114314;28;20475;-70
2023/05/22 05:36:47;;;;;;;4.67;3.70;;;;;;;;;;5108118;28;21106;-70
2023/05/22 05:39:24;;;;;;;7.03;3.97;;;;;;;;;;5115001;28;20537;-70
2023/05/22 05:41:56;;;;;;;7.30;3.83;;;;;;;;;;5111995;28;20572;-69
2023/05/22 05:44:28;;;;;;;7.53;4.00;;;;;;;;;;5114811;28;20473;-69
2023/05/22 05:47:10;;;;;;;6.40;4.20;;;;;;;;;;5114790;28;20457;-69
2023/05/22 05:49:47;;;;;;;6.73;4.33;;;;;;;;;;5112410;28;20461;-69
2023/05/22 05:52:25;;;;;;;5.87;4.53;;;;;;;;;;5113202;27;20843;-70
2023/05/22 05:55:02;;;;;;;5.57;4.30;;;;;;;;;;5108752;28;20818;-70
2023/05/22 05:57:37;;;;;;;6.77;4.00;;;;;;;;;;5109151;28;20533;-70
2023/05/22 06:00:13;;;;;;;5.47;4.17;;;;;;;;;;5102059;28;20457;-69
2023/05/22 06:02:42;;;;;;;5.70;4.50;;;;;;;;;;5109596;28;20511;-70
2023/05/22 06:05:14;;;;;;;5.50;3.73;;;;;;;;;;5111921;28;20538;-70
2023/05/22 06:07:49;;;;;;;6.80;4.10;;;;;;;;;;5110687;28;20530;-70
2023/05/22 06:10:18;;;;;;;4.80;3.47;;;;;;;;;;5113055;28;20479;-71
2023/05/22 06:12:46;;;;;;;9.03;4.43;;;;;;;;;;5110973;28;20941;-70
2023/05/22 06:15:15;;;;;;;10.40;3.70;;;;;;;;;;5111083;28;20455;-70
2023/05/22 06:17:43;;;;;;;9.57;3.83;;;;;;;;;;5112666;28;20532;-70
2023/05/22 06:20:14;;;;;;;5.03;3.80;;;;;;;;;;5113351;28;20459;-69
2023/05/22 06:22:42;;;;;;;6.43;4.17;;;;;;;;;;5113314;28;20471;-69
2023/05/22 06:25:22;;;;;;;4.97;3.60;;;;;;;;;;5112919;28;20877;-70
2023/05/22 06:27:50;;;;;;;7.53;4.07;;;;;;;;;;5113570;28;20454;-71
2023/05/22 06:30:35;;;;;;;6.27;3.73;;;;;;;;;;5115354;28;20447;-72
2023/05/22 06:35:55;;;;;;;5.10;3.40;;;;;;;;;;5112627;28;20454;-71
2023/05/22 06:38:25;;;;;;;6.20;3.77;;;;;;;;;;5113566;28;21060;-70
2023/05/22 06:40:57;;;;;;;5.27;3.60;;;;;;;;;;5113809;28;20899;-71
2023/05/22 06:43:27;;;;;;;6.30;4.57;;;;;;;;;;5115240;28;20451;-71
2023/05/22 06:46:01;;;;;;;9.83;3.80;;;;;;;;;;5111239;28;20442;-71
2023/05/22 06:48:41;;;;;;;4.33;3.30;;;;;;;;;;5109675;28;20448;-71
2023/05/22 06:51:11;;;;;;;5.07;3.70;;;;;;;;;;5112110;28;20790;-70
2023/05/22 06:53:38;;;;;;;6.20;3.43;;;;;;;;;;5113337;28;20831;-71
2023/05/22 06:56:15;;;;;;;5.57;3.33;;;;;;;;;;5112841;28;20463;-70
2023/05/22 06:58:50;;;;;;;6.33;3.13;;;;;;;;;;5111631;28;20474;-70
2023/05/22 07:01:19;;;;;;;6.30;4.10;;;;;;;;;;5113345;28;20447;-70
2023/05/22 07:03:56;;;;;;;5.30;2.97;;;;;;;;;;5109980;28;20535;-70
2023/05/22 07:06:25;;;;;;;4.70;2.93;;;;;;;;;;5101027;28;20475;-69
2023/05/22 07:08:52;;;;;;;6.03;4.07;;;;;;;;;;5109295;28;20464;-70
2023/05/22 07:11:25;;;;;;;10.07;5.10;;;;;;;;;;5105843;28;20487;-70
2023/05/22 07:25:27;;;;;;;4.90;3.30;;;;;;;;;;5096928;28;20456;-73
2023/05/22 07:31:39;;;;;;;5.50;3.67;;;;;;;;;;5097711;28;20557;-73
2023/05/22 07:34:21;;;;;;;6.17;3.67;;;;;;;;;;5110145;28;20435;-71
2023/05/22 07:36:49;;;;;;;5.60;3.57;;;;;;;;;;5114438;28;20469;-72
2023/05/22 07:39:37;;;;;;;4.83;3.00;;;;;;;;;;5116329;28;20482;-73
2023/05/22 07:42:24;;;;;;;;;;;;;;;;;;;;;
2023/05/22 07:44:59;;;;;;;6.80;3.50;;;;;;;;;;5114276;28;20539;-73
2023/05/22 07:47:44;;;;;;;5.40;3.33;;;;;;;;;;5095681;28;20455;-73
2023/05/22 07:50:14;;;;;;;8.60;4.33;;;;;;;;;;5114088;28;20757;-73
2023/05/22 07:52:44;;;;;;;5.50;3.50;;;;;;;;;;5113329;28;21081;-73
2023/05/22 07:55:21;;;;;;;11.13;3.37;;;;;;;;;;5107097;28;20464;-72
2023/05/22 07:58:04;;;;;;;5.10;3.83;;;;;;;;;;5100212;28;20468;-73
2023/05/22 08:00:33;;;;;;;6.73;3.87;;;;;;;;;;5106836;28;20459;-74
2023/05/22 08:03:23;;;;;;;4.77;3.40;;;;;;;;;;5114294;28;20458;-73
2023/05/22 08:05:55;;;;;;;4.37;3.00;;;;;;;;;;5115691;28;20459;-72
2023/05/22 08:08:31;;;;;;;5.53;3.33;;;;;;;;;;5113916;28;20558;-72
2023/05/22 08:11:02;;;;;;;5.63;3.23;;;;;;;;;;5115089;28;20485;-72
2023/05/22 08:13:31;;;;;;;7.10;3.50;;;;;;;;;;5108904;28;20467;-72
2023/05/22 08:16:09;;;;;;;3.80;2.70;;;;;;;;;;5113845;28;20524;-72
2023/05/22 08:19:07;;;;;;;7.67;3.53;;;;;;;;;;5117875;28;20957;-72
2023/05/22 08:21:49;;;;;;;6.70;3.00;;;;;;;;;;5096134;28;20570;-73
2023/05/22 08:24:48;;;;;;;4.40;2.90;;;;;;;;;;5096352;28;20535;-73
2023/05/22 08:27:18;;;;;;;6.17;3.03;;;;;;;;;;5093475;28;20547;-72
2023/05/22 08:32:51;;;;;;;5.47;2.93;;;;;;;;;;5098015;28;20588;-73
2023/05/22 08:35:28;;;;;;;6.10;3.43;;;;;;;;;;5095200;28;20559;-72
2023/05/22 08:38:43;;;;;;;4.63;3.40;;;;;;;;;;5097784;28;20470;-73
2023/05/22 08:47:57;;;;;;;5.40;3.40;;;;;;;;;;5068833;28;20440;-72
2023/05/22 08:50:29;;;;;;;4.70;3.87;;;;;;;;;;5101001;28;20463;-73
2023/05/22 08:56:23;;;;;;;5.50;3.47;;;;;;;;;;5083077;28;20447;-72
2023/05/22 09:05:12;;;;;;;4.37;3.37;;;;;;;;;;5097048;28;20400;-73
2023/05/22 09:07:42;;;;;;;5.10;3.13;;;;;;;;;;5095231;28;21073;-72
2023/05/22 09:10:14;;;;;;;11.33;4.33;;;;;;;;;;5095187;28;20454;-73
2023/05/22 09:13:37;;;;;;;4.33;3.13;;;;;;;;;;5097953;28;20545;-72
2023/05/22 09:16:13;;;;;;;3.70;2.80;;;;;;;;;;5093721;28;20559;-71
2023/05/22 09:19:00;;;;;;;7.03;2.70;;;;;;;;;;5095784;28;20448;-72
2023/05/22 09:22:05;;;;;;;5.50;3.40;;;;;;;;;;5063780;28;20456;-73
2023/05/22 09:24:47;;;;;;;4.83;2.93;;;;;;;;;;5088887;28;20493;-71
2023/05/22 09:27:16;;;;;;;3.93;3.20;;;;;;;;;;5078698;28;20444;-72
2023/05/22 09:29:53;;;;;;;4.10;3.13;;;;;;;;;;5096074;28;20452;-71
2023/05/22 09:32:28;;;;;;;5.57;3.47;;;;;;;;;;5089867;28;20480;-73
2023/05/22 09:35:09;;;;;;;3.90;2.90;;;;;;;;;;5084963;28;20467;-73
2023/05/22 09:37:48;;;;;;;6.27;3.33;;;;;;;;;;5091652;28;20563;-71
2023/05/22 09:40:39;;;;;;;5.80;2.80;;;;;;;;;;5094710;28;20448;-72
2023/05/22 09:52:17;;;;;;;3.60;2.87;;;;;;;;;;5108600;28;20480;-73
2023/05/22 09:55:16;;;;;;;4.10;2.97;;;;;;;;;;5114212;28;20197;-74
2023/05/22 09:57:48;;;;;;;4.97;3.00;;;;;;;;;;5117564;28;20557;-73
2023/05/22 10:00:20;;;;;;;4.10;3.13;;;;;;;;;;5113803;28;20531;-73
2023/05/22 10:03:06;;;;;;;7.10;5.30;;;;;;;;;;5111927;28;20479;-73
2023/05/22 10:08:51;;;;;;;7.20;3.57;;;;;;;;;;5112415;28;20508;-73
2023/05/22 10:11:57;;;;;;;4.90;3.70;;;;;;;;;;5094762;28;20584;-73
2023/05/22 10:14:37;;;;;;;5.20;2.83;;;;;;;;;;5096788;28;20860;-72
2023/05/22 10:17:11;;;;;;;4.23;3.00;;;;;;;;;;5089638;28;20523;-74
2023/05/22 10:19:39;;;;;;;5.20;3.30;;;;;;;;;;5113734;28;20456;-72
2023/05/22 10:22:19;;;;;;;4.23;3.53;;;;;;;;;;5097081;28;20452;-71
2023/05/22 10:24:47;;;;;;;6.00;3.73;;;;;;;;;;5117031;28;20446;-73
2023/05/22 10:27:17;;;;;;;5.10;3.00;;;;;;;;;;5115475;28;20538;-72
2023/05/22 10:29:58;;;;;;;7.77;3.83;;;;;;;;;;5117731;28;20479;-73
2023/05/22 10:32:52;;;;;;;5.57;3.40;;;;;;;;;;5114418;28;20551;-71
2023/05/22 10:35:37;;;;;;;4.60;3.20;;;;;;;;;;5117696;28;20459;-72
2023/05/22 10:38:11;;;;;;;4.67;2.97;;;;;;;;;;5117136;28;20459;-72
2023/05/22 10:43:34;;;;;;;5.50;2.70;;;;;;;;;;5110519;28;21091;-72
2023/05/22 10:46:08;;;;;;;4.83;3.00;;;;;;;;;;5113937;28;20451;-72
2023/05/22 10:48:47;;;;;;;5.97;3.10;;;;;;;;;;5114326;28;20508;-71
2023/05/22 10:51:22;;;;;;;6.77;3.40;;;;;;;;;;5114419;28;20550;-72
2023/05/22 10:53:54;;;;;;;6.93;3.60;;;;;;;;;;5114817;28;20477;-72
2023/05/22 10:56:40;;;;;;;6.23;3.50;;;;;;;;;;5098112;28;20448;-71
2023/05/22 11:02:01;;;;;;;8.13;3.23;;;;;;;;;;5109243;28;20432;-72
2023/05/22 11:04:31;;;;;;;5.13;3.50;;;;;;;;;;5112507;28;20541;-74
2023/05/22 11:07:22;;;;;;;4.70;3.07;;;;;;;;;;5129601;27;20481;-73
2023/05/22 11:10:10;;;;;;;4.40;2.50;;;;;;;;;;5102718;28;20455;-72
2023/05/22 11:15:46;;;;;;;;;;;;;;;;;;;;;
2023/05/22 11:18:22;;;;;;;7.60;3.73;;;;;;;;;;5096349;28;20444;-72
2023/05/22 11:20:55;;;;;;;4.37;2.90;;;;;;;;;;5094744;28;20799;-73
2023/05/22 11:23:37;;;;;;;6.97;3.70;;;;;;;;;;5093400;28;20551;-72
2023/05/22 11:26:26;;;;;;;5.27;3.67;;;;;;;;;;5102990;28;20439;-71
2023/05/22 11:29:20;;;;;;;5.27;3.50;;;;;;;;;;5113602;28;20457;-72
2023/05/22 11:31:48;;;;;;;5.90;3.40;;;;;;;;;;5111824;28;20455;-72
2023/05/22 11:34:24;;;;;;;4.13;3.07;;;;;;;;;;5114827;28;20494;-71
2023/05/22 11:40:31;;;;;;;7.03;3.07;;;;;;;;;;5107881;28;20734;-72
2023/05/22 11:52:36;;;;;;;6.70;3.27;;;;;;;;;;5092974;28;20482;-72
2023/05/22 11:55:41;;;;;;;4.60;3.67;;;;;;;;;;5095253;28;20474;-72
2023/05/22 11:58:46;;;;;;;7.93;3.67;;;;;;;;;;5107452;28;20431;-72
2023/05/22 12:01:17;;;;;;;4.20;3.23;;;;;;;;;;5117099;28;20727;-72
2023/05/22 12:03:53;;;;;;;6.87;3.93;;;;;;;;;;5118800;28;20446;-72
2023/05/22 12:06:25;;;;;;;5.87;3.33;;;;;;;;;;5119368;28;20523;-73
2023/05/22 12:09:11;;;;;;;5.07;3.63;;;;;;;;;;5118655;28;20532;-72
2023/05/22 12:11:41;;;;;;;11.40;4.20;;;;;;;;;;5111700;28;20945;-73
2023/05/22 12:14:26;;;;;;;4.40;3.20;;;;;;;;;;5116772;27;20475;-73
2023/05/22 12:16:54;;;;;;;8.30;3.03;;;;;;;;;;5116464;28;20964;-73
2023/05/22 12:19:34;;;;;;;5.77;3.53;;;;;;;;;;5104662;28;20495;-72
2023/05/22 12:22:15;;;;;;;6.97;2.90;;;;;;;;;;5097673;28;20570;-74
2023/05/22 12:24:46;;;;;;;6.70;4.10;;;;;;;;;;5117025;28;20473;-73
2023/05/22 12:27:33;;;;;;;5.47;3.00;;;;;;;;;;5118672;28;20431;-73
2023/05/22 12:33:28;;;;;;;5.43;3.40;;;;;;;;;;5094983;28;20502;-73
2023/05/22 12:36:14;;;;;;;5.73;3.63;;;;;;;;;;5110080;28;20565;-73
2023/05/22 12:38:46;;;;;;;7.23;3.17;;;;;;;;;;5116787;28;20941;-72
2023/05/22 12:41:20;;;;;;;4.87;3.53;;;;;;;;;;5118014;28;20462;-73
2023/05/22 12:44:30;;;;;;;5.53;4.80;;;;;;;;;;5105420;28;20490;-73
2023/05/22 12:47:33;;;;;;;3.80;3.20;;;;;;;;;;5100046;27;20464;-74
2023/05/22 12:50:33;;;;;;;8.53;3.90;;;;;;;;;;5105703;28;20456;-73
2023/05/22 12:53:37;;;;;;;4.53;3.00;;;;;;;;;;5103739;28;20471;-73
2023/05/22 12:56:36;;;;;;;4.13;3.23;;;;;;;;;;5102857;28;20440;-73
2023/05/22 12:59:16;;;;;;;4.87;3.70;;;;;;;;;;5114804;28;20454;-72
2023/05/22 13:01:53;;;;;;;5.10;3.13;;;;;;;;;;5120249;28;20462;-73
2023/05/22 13:04:27;;;;;;;7.30;3.60;;;;;;;;;;5115911;28;20439;-72
2023/05/22 13:07:21;;;;;;;4.00;3.10;;;;;;;;;;5112566;28;20526;-72
2023/05/22 13:15:51;;;;;;;4.70;3.40;;;;;;;;;;5116481;28;20480;-73
2023/05/22 13:18:20;;;;;;;4.67;3.73;;;;;;;;;;5119629;27;20477;-72
2023/05/22 13:20:52;;;;;;;8.67;3.37;;;;;;;;;;5118455;28;20463;-73
2023/05/22 13:23:29;;;;;;;5.37;3.90;;;;;;;;;;5108593;28;20902;-73
2023/05/22 13:25:57;;;;;;;4.07;3.03;;;;;;;;;;5118535;28;20538;-72
2023/05/22 13:28:49;;;;;;;4.67;3.40;;;;;;;;;;5109027;28;20452;-73
2023/05/22 13:34:35;;;;;;;3.77;3.30;;;;;;;;;;5077135;28;20547;-73
2023/05/22 13:37:04;;;;;;;6.97;3.77;;;;;;;;;;5115052;28;20462;-73
2023/05/22 13:39:38;;;;;;;4.90;3.90;;;;;;;;;;5110382;27;20447;-73
2023/05/22 13:42:24;;;;;;;6.87;5.07;;;;;;;;;;5108163;28;20505;-72
2023/05/22 13:44:55;;;;;;;5.73;3.73;;;;;;;;;;5115469;28;20666;-73
2023/05/22 13:47:32;;;;;;;4.70;4.13;;;;;;;;;;5115438;28;20455;-71
2023/05/22 13:50:25;;;;;;;6.83;3.83;;;;;;;;;;5116334;28;20474;-71
2023/05/22 13:53:09;;;;;;;5.83;3.90;;;;;;;;;;5115154;28;20537;-72
2023/05/22 13:56:03;;;;;;;5.20;3.90;;;;;;;;;;5109418;28;20547;-72
2023/05/22 14:01:43;;;;;;;5.97;3.40;;;;;;;;;;5099079;28;20562;-72
2023/05/22 14:04:17;;;;;;;9.40;3.93;;;;;;;;;;5112589;28;20447;-71
2023/05/22 14:06:47;;;;;;;4.50;3.20;;;;;;;;;;5099280;28;20928;-73
2023/05/22 14:09:16;;;;;;;9.10;3.47;;;;;;;;;;5106603;28;20470;-72
2023/05/22 14:11:46;;;;;;;8.70;3.70;;;;;;;;;;5114851;28;20478;-73
2023/05/22 14:14:22;;;;;;;5.83;4.03;;;;;;;;;;5110692;28;20505;-72
2023/05/22 14:17:07;;;;;;;7.20;4.27;;;;;;;;;;5111383;28;20467;-74
2023/05/22 14:19:34;;;;;;;3.57;2.87;;;;;;;;;;5117996;28;20644;-73
2023/05/22 14:22:13;;;;;;;5.67;3.90;;;;;;;;;;5099447;28;20459;-72
2023/05/22 14:24:48;;;;;;;6.47;3.90;;;;;;;;;;5114783;28;20471;-72
2023/05/22 14:27:16;;;;;;;5.37;3.80;;;;;;;;;;5109437;28;20851;-71
2023/05/22 14:29:56;;;;;;;6.27;4.00;;;;;;;;;;5116366;28;20459;-71
2023/05/22 14:32:42;;;;;;;5.87;3.37;;;;;;;;;;5109343;28;20474;-72
2023/05/22 14:38:08;;;;;;;4.37;3.63;;;;;;;;;;5100794;28;20451;-72
2023/05/22 14:40:37;;;;;;;5.57;4.23;;;;;;;;;;5108092;28;20525;-72
2023/05/22 14:46:06;;;;;;;4.97;3.40;;;;;;;;;;5106796;28;20443;-73
2023/05/22 14:48:36;;;;;;;6.00;4.70;;;;;;;;;;5095664;28;20456;-72
2023/05/22 14:51:15;;;;;;;6.57;4.30;;;;;;;;;;5096064;28;20464;-72
2023/05/22 14:53:50;;;;;;;7.00;4.40;;;;;;;;;;5110327;28;20739;-72
2023/05/22 14:59:24;;;;;;;5.00;3.70;;;;;;;;;;5110012;28;20454;-72
2023/05/22 15:01:59;;;;;;;6.10;3.97;;;;;;;;;;5109792;28;21017;-72
2023/05/22 15:04:39;;;;;;;4.40;3.80;;;;;;;;;;5101134;28;20463;-73
2023/05/22 15:07:51;;;;;;;5.07;3.90;;;;;;;;;;5092935;28;20481;-72
2023/05/22 15:10:39;;;;;;;4.77;4.10;;;;;;;;;;5109161;28;20506;-73
2023/05/22 15:13:21;;;;;;;5.33;3.80;;;;;;;;;;5107371;28;20951;-72
2023/05/22 15:15:49;;;;;;;6.77;4.13;;;;;;;;;;5108177;28;20457;-73
2023/05/22 15:18:18;;;;;;;6.80;4.60;;;;;;;;;;5095841;28;20455;-71
2023/05/22 15:21:22;;;;;;;4.93;4.43;;;;;;;;;;5101461;28;20598;-72
2023/05/22 15:23:57;;;;;;;5.63;4.93;;;;;;;;;;5100825;28;20447;-71
2023/05/22 15:26:25;;;;;;;5.63;4.30;;;;;;;;;;5091495;28;20455;-72
2023/05/22 15:29:30;;;;;;;;;;;;;;;;;;;;;
2023/05/22 15:32:16;;;;;;;6.53;4.33;;;;;;;;;;4980110;28;3602654;-73
2023/05/22 15:35:21;;;;;;;6.90;3.77;;;;;;;;;;5111946;28;20703;-72
2023/05/22 15:38:05;;;;;;;7.23;5.03;;;;;;;;;;5102978;28;20583;-71
2023/05/22 15:40:41;;;;;;;5.63;4.10;;;;;;;;;;5112578;28;20528;-73
2023/05/22 15:43:09;;;;;;;8.43;4.40;;;;;;;;;;5109950;28;20552;-71
2023/05/22 15:45:43;;;;;;;8.17;4.10;;;;;;;;;;5099017;28;20855;-72
2023/05/22 15:48:32;;;;;;;5.63;4.03;;;;;;;;;;5094285;28;20456;-72
2023/05/22 15:51:22;;;;;;;5.53;4.23;;;;;;;;;;5096808;28;20552;-72
2023/05/22 15:57:10;;;;;;;5.90;3.80;;;;;;;;;;5109905;28;20906;-73
2023/05/22 16:05:33;;;;;;;5.77;3.60;;;;;;;;;;5112730;28;20439;-73
2023/05/22 16:08:14;;;;;;;5.33;3.30;;;;;;;;;;5113206;28;20487;-72
2023/05/22 16:16:49;;;;;;;6.57;5.30;;;;;;;;;;5090352;28;20699;-71
2023/05/22 16:19:33;;;;;;;6.20;4.70;;;;;;;;;;5091278;28;20537;-70
2023/05/22 16:22:25;;;;;;;7.73;5.50;;;;;;;;;;5095664;28;20925;-70
2023/05/22 16:25:01;;;;;;;10.23;5.57;;;;;;;;;;5108598;28;20446;-70
2023/05/22 16:27:35;;;;;;;7.40;4.77;;;;;;;;;;5109880;28;20822;-70
2023/05/22 16:30:07;;;;;;;9.33;5.80;;;;;;;;;;5101911;28;20555;-70
2023/05/22 16:32:53;;;;;;;8.73;6.10;;;;;;;;;;5092069;28;20443;-70
2023/05/22 16:35:20;;;;;;;9.60;5.53;;;;;;;;;;5089388;28;20497;-70
2023/05/22 16:40:41;;;;;;;8.87;7.00;;;;;;;;;;5110283;28;20465;-70
2023/05/22 16:43:13;;;;;;;7.53;5.90;;;;;;;;;;5113678;28;20447;-70
2023/05/22 16:45:58;;;;;;;8.80;6.73;;;;;;;;;;5114325;28;20516;-70
2023/05/22 16:48:26;;;;;;;7.40;6.40;;;;;;;;;;5117725;28;20535;-70
2023/05/22 16:50:59;;;;;;;10.43;6.70;;;;;;;;;;5116846;28;20598;-69
2023/05/22 16:53:39;;;;;;;8.90;7.60;;;;;;;;;;5115569;28;20435;-71
2023/05/22 16:56:19;;;;;;;9.60;7.10;;;;;;;;;;5114404;28;20787;-71
2023/05/22 16:58:46;;;;;;;9.17;7.30;;;;;;;;;;5116508;28;20513;-71
2023/05/22 17:01:34;;;;;;;10.93;8.63;;;;;;;;;;5119001;28;20459;-71
2023/05/22 17:04:02;;;;;;;12.67;9.10;;;;;;;;;;5115517;28;20588;-72
2023/05/22 17:06:36;;;;;;;8.73;7.67;;;;;;;;;;5117766;28;20455;-73
2023/05/22 17:09:34;;;;;;;11.17;7.80;;;;;;;;;;5118612;28;20557;-73
2023/05/22 17:12:18;;;;;;;14.10;8.17;;;;;;;;;;5107230;28;20470;-73
2023/05/22 17:14:55;;;;;;;9.73;8.10;;;;;;;;;;5117368;28;20579;-72
2023/05/22 17:17:24;;;;;;;11.47;9.30;;;;;;;;;;5116947;28;20457;-70
2023/05/22 17:19:52;;;;;;;13.53;8.53;;;;;;;;;;5114763;28;20446;-72
2023/05/22 17:22:31;;;;;;;9.83;8.17;;;;;;;;;;5116442;28;20800;-73
2023/05/22 17:25:06;;;;;;;15.23;9.37;;;;;;;;;;5118003;28;20854;-73
2023/05/22 17:27:35;;;;;;;12.40;9.03;;;;;;;;;;5111563;28;20521;-72
2023/05/22 17:30:12;;;;;;;18.60;11.57;;;;;;;;;;5115183;28;20455;-72